createdAt,value
2022-10-05T00:00:15.312Z,13.91
2022-10-05T00:00:48.822Z,13.90
2022-10-05T00:01:20.329Z,13.91
2022-10-05T00:01:53.084Z,13.88
2022-10-05T00:02:24.591Z,13.89
2022-10-05T00:02:56.005Z,13.84
2022-10-05T00:03:27.934Z,13.88
2022-10-05T00:04:09.186Z,13.90
2022-10-05T00:04:40.658Z,13.86
2022-10-05T00:05:32.171Z,13.86
2022-10-05T00:06:03.695Z,13.85
2022-10-05T00:06:35.113Z,13.87
2022-10-05T00:07:12.624Z,13.85
2022-10-05T00:07:44.032Z,13.88
2022-10-05T00:08:17.117Z,13.87
2022-10-05T00:08:48.538Z,13.86
2022-10-05T00:09:23.578Z,13.85
2022-10-05T00:09:55.718Z,13.91
2022-10-05T00:10:27.140Z,13.89
2022-10-05T00:10:58.751Z,13.88
2022-10-05T00:11:30.205Z,13.88
2022-10-05T00:12:18.092Z,13.88
2022-10-05T00:12:49.613Z,13.87
2022-10-05T00:13:24.941Z,13.86
2022-10-05T00:13:56.362Z,13.86
2022-10-05T00:14:29.439Z,13.84
2022-10-05T00:15:01.127Z,13.85
2022-10-05T00:15:32.541Z,13.85
2022-10-05T00:16:17.202Z,13.94
2022-10-05T00:16:49.280Z,13.86
2022-10-05T00:17:24.605Z,13.84
2022-10-05T00:17:56.052Z,13.83
2022-10-05T00:18:27.472Z,13.83
2022-10-05T00:18:58.876Z,13.85
2022-10-05T00:19:34.861Z,13.83
2022-10-05T00:20:35.432Z,13.83
2022-10-05T00:21:20.190Z,13.82
2022-10-05T00:21:51.615Z,13.86
2022-10-05T00:22:23.959Z,13.86
2022-10-05T00:22:58.714Z,13.83
2022-10-05T00:23:31.085Z,13.86
2022-10-05T00:24:02.751Z,13.84
2022-10-05T00:24:34.178Z,13.82
2022-10-05T00:25:11.325Z,13.81
2022-10-05T00:25:42.760Z,13.84
2022-10-05T00:26:16.646Z,13.84
2022-10-05T00:26:55.384Z,13.85
2022-10-05T00:27:32.704Z,13.82
2022-10-05T00:28:06.198Z,13.82
2022-10-05T00:28:37.730Z,13.86
2022-10-05T00:29:18.801Z,13.87
2022-10-05T00:29:50.976Z,13.87
2022-10-05T00:30:23.684Z,13.90
2022-10-05T00:30:55.476Z,13.88
2022-10-05T00:31:29.392Z,13.85
2022-10-05T00:32:01.176Z,13.82
2022-10-05T00:32:32.635Z,13.84
2022-10-05T00:33:04.036Z,13.85
2022-10-05T00:33:35.446Z,13.92
2022-10-05T00:34:06.958Z,13.89
2022-10-05T00:34:38.396Z,13.85
2022-10-05T00:35:10.174Z,13.88
2022-10-05T00:35:41.571Z,13.89
2022-10-05T00:36:13.167Z,13.85
2022-10-05T00:36:44.980Z,13.86
2022-10-05T00:37:16.725Z,13.85
2022-10-05T00:37:52.285Z,13.84
2022-10-05T00:38:23.719Z,13.84
2022-10-05T00:38:55.285Z,13.83
2022-10-05T00:39:26.759Z,13.81
2022-10-05T00:39:58.182Z,13.87
2022-10-05T00:40:37.243Z,13.89
2022-10-05T00:41:12.865Z,13.84
2022-10-05T00:41:49.184Z,13.82
2022-10-05T00:42:23.485Z,13.83
2022-10-05T00:42:54.920Z,13.86
2022-10-05T00:43:26.443Z,13.86
2022-10-05T00:44:03.458Z,13.81
2022-10-05T00:44:36.965Z,13.79
2022-10-05T00:45:13.138Z,13.83
2022-10-05T00:45:48.555Z,13.80
2022-10-05T00:46:20.004Z,13.84
2022-10-05T00:46:54.079Z,13.85
2022-10-05T00:47:44.036Z,13.82
2022-10-05T00:48:24.327Z,13.79
2022-10-05T00:49:14.226Z,13.85
2022-10-05T00:50:08.408Z,13.79
2022-10-05T00:51:00.237Z,13.79
2022-10-05T00:51:32.296Z,13.77
2022-10-05T00:52:20.284Z,13.86
2022-10-05T00:52:55.076Z,13.83
2022-10-05T00:53:42.946Z,13.81
2022-10-05T00:54:23.649Z,13.82
2022-10-05T00:54:59.397Z,13.82
2022-10-05T00:55:40.167Z,13.80
2022-10-05T00:56:17.194Z,13.80
2022-10-05T00:56:48.771Z,13.80
2022-10-05T00:57:20.368Z,13.81
2022-10-05T00:58:10.673Z,13.79
2022-10-05T00:59:01.005Z,13.80
2022-10-05T00:59:50.883Z,13.82
2022-10-05T01:00:24.453Z,13.81
2022-10-05T01:01:04.788Z,13.79
2022-10-05T01:01:55.096Z,13.79
2022-10-05T01:02:38.371Z,13.83
2022-10-05T01:03:12.226Z,13.88
2022-10-05T01:03:50.071Z,13.83
2022-10-05T01:04:24.141Z,13.88
2022-10-05T01:05:01.531Z,13.83
2022-10-05T01:05:50.939Z,13.87
2022-10-05T01:06:31.732Z,13.83
2022-10-05T01:07:05.884Z,13.79
2022-10-05T01:08:00.205Z,13.79
2022-10-05T01:08:34.432Z,13.79
2022-10-05T01:09:09.534Z,13.79
2022-10-05T01:09:45.616Z,13.77
2022-10-05T01:10:22.711Z,13.77
2022-10-05T01:10:56.778Z,13.77
2022-10-05T01:11:28.194Z,13.86
2022-10-05T01:12:11.792Z,13.81
2022-10-05T01:12:46.336Z,13.81
2022-10-05T01:13:22.201Z,13.79
2022-10-05T01:13:57.655Z,13.81
2022-10-05T01:14:34.083Z,13.78
2022-10-05T01:15:09.208Z,13.82
2022-10-05T01:15:40.802Z,13.83
2022-10-05T01:16:26.962Z,13.81
2022-10-05T01:17:20.135Z,13.80
2022-10-05T01:18:03.307Z,13.78
2022-10-05T01:18:40.815Z,13.79
2022-10-05T01:19:30.278Z,13.78
2022-10-05T01:20:11.158Z,13.79
2022-10-05T01:20:45.493Z,13.81
2022-10-05T01:21:20.205Z,13.78
2022-10-05T01:21:53.944Z,13.74
2022-10-05T01:22:43.767Z,13.77
2022-10-05T01:23:23.856Z,13.74
2022-10-05T01:24:04.667Z,13.76
2022-10-05T01:24:44.173Z,13.74
2022-10-05T01:25:18.556Z,13.85
2022-10-05T01:26:01.334Z,13.80
2022-10-05T01:26:43.291Z,13.77
2022-10-05T01:27:14.885Z,13.72
2022-10-05T01:28:03.399Z,13.74
2022-10-05T01:28:40.585Z,13.76
2022-10-05T01:29:15.543Z,13.75
2022-10-05T01:29:52.440Z,13.75
2022-10-05T01:30:23.935Z,13.81
2022-10-05T01:31:01.704Z,13.84
2022-10-05T01:31:45.090Z,13.79
2022-10-05T01:32:33.759Z,13.79
2022-10-05T01:33:40.653Z,13.78
2022-10-05T01:34:32.344Z,13.78
2022-10-05T01:35:16.272Z,13.79
2022-10-05T01:35:50.702Z,13.79
2022-10-05T01:36:27.401Z,13.80
2022-10-05T01:37:14.347Z,13.77
2022-10-05T01:37:57.645Z,13.77
2022-10-05T01:38:43.552Z,13.78
2022-10-05T01:39:30.078Z,13.71
2022-10-05T01:40:01.569Z,13.71
2022-10-05T01:40:49.252Z,13.70
2022-10-05T01:41:20.712Z,13.70
2022-10-05T01:42:01.159Z,13.67
2022-10-05T01:42:35.401Z,13.65
2022-10-05T01:43:16.503Z,13.67
2022-10-05T01:43:58.680Z,13.70
2022-10-05T01:45:02.380Z,13.68
2022-10-05T01:45:36.803Z,13.73
2022-10-05T01:46:17.093Z,13.68
2022-10-05T01:46:51.139Z,13.61
2022-10-05T01:47:27.720Z,13.60
2022-10-05T01:48:09.762Z,13.63
2022-10-05T01:48:59.773Z,13.60
2022-10-05T01:49:37.806Z,13.52
2022-10-05T01:50:22.632Z,13.53
2022-10-05T01:50:57.393Z,13.51
2022-10-05T01:51:35.251Z,13.53
2022-10-05T01:52:25.512Z,13.53
2022-10-05T01:53:07.882Z,13.49
2022-10-05T01:53:42.439Z,13.52
2022-10-05T01:54:13.803Z,13.49
2022-10-05T01:55:03.698Z,13.49
2022-10-05T01:55:38.823Z,13.49
2022-10-05T01:56:17.148Z,13.48
2022-10-05T01:56:59.651Z,13.44
2022-10-05T01:57:51.487Z,13.46
2022-10-05T01:58:29.028Z,13.46
2022-10-05T01:59:16.070Z,13.46
2022-10-05T01:59:54.097Z,13.47
2022-10-05T02:00:25.563Z,13.48
2022-10-05T02:01:05.122Z,13.45
2022-10-05T02:01:41.821Z,13.43
2022-10-05T02:02:14.540Z,13.44
2022-10-05T02:02:45.999Z,13.41
2022-10-05T02:03:19.963Z,13.43
2022-10-05T02:03:57.107Z,13.39
2022-10-05T02:05:00.804Z,13.39
2022-10-05T02:05:30.038Z,13.38
2022-10-05T02:06:04.746Z,13.37
2022-10-05T02:06:39.815Z,13.38
2022-10-05T02:07:24.163Z,13.35
2022-10-05T02:08:00.884Z,13.36
2022-10-05T02:08:36.658Z,13.26
2022-10-05T02:09:10.213Z,13.31
2022-10-05T02:09:46.595Z,13.28
2022-10-05T02:10:19.907Z,13.22
2022-10-05T02:11:01.688Z,13.18
2022-10-05T02:11:33.362Z,13.19
2022-10-05T02:12:05.986Z,13.14
2022-10-05T02:12:38.312Z,13.11
2022-10-05T02:13:15.951Z,13.10
2022-10-05T02:13:49.228Z,13.08
2022-10-05T02:14:22.836Z,13.08
2022-10-05T02:14:55.885Z,13.08
2022-10-05T02:15:29.153Z,13.00
2022-10-05T02:16:02.143Z,13.02
2022-10-05T02:16:38.530Z,13.00
2022-10-05T02:17:17.655Z,12.98
2022-10-05T02:17:49.651Z,12.93
2022-10-05T02:18:23.514Z,12.93
2022-10-05T02:18:56.958Z,12.92
2022-10-05T02:19:37.079Z,12.91
2022-10-05T02:20:11.608Z,12.93
2022-10-05T02:20:43.117Z,12.90
2022-10-05T02:21:14.569Z,12.86
2022-10-05T02:21:47.151Z,12.85
2022-10-05T02:22:42.601Z,12.83
2022-10-05T02:23:16.250Z,12.80
2022-10-05T02:23:49.001Z,12.80
2022-10-05T02:24:25.271Z,12.78
2022-10-05T02:25:00.811Z,12.77
2022-10-05T02:25:33.797Z,12.72
2022-10-05T02:26:05.318Z,12.74
2022-10-05T02:26:36.951Z,12.71
2022-10-05T02:27:08.712Z,12.72
2022-10-05T02:28:00.812Z,12.74
2022-10-05T02:28:34.971Z,12.72
2022-10-05T02:29:07.858Z,12.73
2022-10-05T02:29:40.369Z,12.69
2022-10-05T02:30:16.356Z,12.77
2022-10-05T02:30:51.731Z,12.74
2022-10-05T02:31:25.841Z,12.74
2022-10-05T02:32:04.430Z,12.74
2022-10-05T02:32:42.248Z,12.74
2022-10-05T02:33:39.748Z,12.74
2022-10-05T02:34:21.308Z,12.73
2022-10-05T02:34:53.083Z,12.72
2022-10-05T02:35:28.188Z,12.69
2022-10-05T02:36:07.593Z,12.67
2022-10-05T02:36:39.099Z,12.70
2022-10-05T02:37:10.792Z,12.72
2022-10-05T02:37:54.291Z,12.72
2022-10-05T02:38:28.151Z,12.70
2022-10-05T02:39:00.376Z,12.70
2022-10-05T02:39:37.365Z,12.72
2022-10-05T02:40:08.846Z,12.70
2022-10-05T02:40:40.235Z,12.73
2022-10-05T02:41:30.302Z,12.74
2022-10-05T02:42:11.656Z,12.73
2022-10-05T02:43:01.538Z,12.72
2022-10-05T02:43:38.973Z,12.81
2022-10-05T02:44:17.363Z,12.72
2022-10-05T02:44:56.007Z,12.68
2022-10-05T02:45:30.954Z,12.68
2022-10-05T02:46:02.569Z,12.66
2022-10-05T02:46:41.699Z,12.65
2022-10-05T02:47:29.752Z,12.66
2022-10-05T02:48:11.049Z,12.61
2022-10-05T02:48:48.352Z,12.58
2022-10-05T02:49:29.016Z,12.60
2022-10-05T02:50:18.898Z,12.66
2022-10-05T02:51:02.699Z,12.60
2022-10-05T02:51:40.522Z,12.58
2022-10-05T02:52:22.294Z,12.60
2022-10-05T02:53:02.997Z,12.62
2022-10-05T02:53:47.476Z,12.63
2022-10-05T02:54:37.620Z,12.63
2022-10-05T02:55:10.672Z,12.63
2022-10-05T02:55:46.470Z,12.63
2022-10-05T02:56:32.470Z,12.62
2022-10-05T02:57:06.528Z,12.60
2022-10-05T02:57:39.845Z,12.59
2022-10-05T02:58:15.500Z,12.61
2022-10-05T02:58:56.651Z,12.59
2022-10-05T02:59:28.119Z,12.60
2022-10-05T03:00:04.570Z,12.62
2022-10-05T03:00:39.429Z,12.59
2022-10-05T03:01:10.916Z,12.57
2022-10-05T03:01:54.581Z,12.59
2022-10-05T03:03:01.439Z,12.54
2022-10-05T03:03:32.876Z,12.50
2022-10-05T03:04:04.421Z,12.52
2022-10-05T03:04:43.166Z,12.48
2022-10-05T03:05:15.677Z,12.54
2022-10-05T03:05:48.708Z,12.52
2022-10-05T03:06:22.675Z,12.48
2022-10-05T03:07:05.166Z,12.49
2022-10-05T03:07:42.364Z,12.46
2022-10-05T03:08:15.808Z,12.44
2022-10-05T03:08:50.100Z,12.43
2022-10-05T03:09:22.500Z,12.43
2022-10-05T03:10:01.253Z,12.45
2022-10-05T03:10:37.268Z,12.45
2022-10-05T03:11:14.952Z,12.48
2022-10-05T03:11:55.307Z,12.48
2022-10-05T03:12:26.887Z,12.47
2022-10-05T03:13:02.642Z,12.51
2022-10-05T03:13:38.211Z,12.52
2022-10-05T03:14:13.502Z,12.58
2022-10-05T03:14:46.607Z,12.57
2022-10-05T03:15:36.517Z,12.52
2022-10-05T03:16:07.998Z,12.58
2022-10-05T03:16:40.030Z,12.55
2022-10-05T03:17:19.799Z,12.52
2022-10-05T03:18:12.734Z,12.50
2022-10-05T03:18:48.202Z,12.49
2022-10-05T03:19:38.234Z,12.51
2022-10-05T03:20:12.649Z,12.56
2022-10-05T03:21:03.312Z,12.56
2022-10-05T03:21:46.690Z,12.58
2022-10-05T03:22:21.345Z,12.58
2022-10-05T03:22:59.938Z,12.60
2022-10-05T03:23:41.167Z,12.61
2022-10-05T03:24:15.392Z,12.64
2022-10-05T03:24:46.942Z,12.64
2022-10-05T03:25:23.556Z,12.65
2022-10-05T03:26:13.016Z,12.68
2022-10-05T03:26:44.756Z,12.68
2022-10-05T03:27:23.108Z,12.71
2022-10-05T03:27:54.924Z,12.69
2022-10-05T03:28:27.501Z,12.69
2022-10-05T03:29:17.759Z,12.71
2022-10-05T03:29:52.396Z,12.67
2022-10-05T03:30:26.009Z,12.67
2022-10-05T03:31:03.313Z,12.68
2022-10-05T03:31:41.029Z,12.68
2022-10-05T03:32:12.574Z,12.66
2022-10-05T03:32:53.157Z,12.68
2022-10-05T03:33:27.731Z,12.68
2022-10-05T03:34:23.132Z,12.68
2022-10-05T03:34:55.000Z,12.67
2022-10-05T03:35:29.124Z,12.66
2022-10-05T03:36:06.883Z,12.68
2022-10-05T03:36:44.498Z,12.66
2022-10-05T03:37:17.953Z,12.66
2022-10-05T03:37:58.805Z,12.69
2022-10-05T03:38:30.750Z,12.69
2022-10-05T03:39:03.678Z,12.69
2022-10-05T03:39:42.444Z,12.69
2022-10-05T03:40:32.840Z,12.69
2022-10-05T03:41:07.397Z,12.74
2022-10-05T03:41:41.602Z,12.73
2022-10-05T03:42:21.925Z,12.68
2022-10-05T03:43:11.763Z,12.72
2022-10-05T03:43:43.144Z,12.72
2022-10-05T03:44:17.671Z,12.68
2022-10-05T03:44:51.132Z,12.69
2022-10-05T03:45:23.873Z,12.71
2022-10-05T03:46:21.627Z,12.73
2022-10-05T03:47:02.723Z,12.76
2022-10-05T03:47:37.165Z,12.73
2022-10-05T03:48:10.107Z,12.72
2022-10-05T03:48:51.510Z,12.73
2022-10-05T03:49:49.139Z,12.71
2022-10-05T03:50:40.638Z,12.69
2022-10-05T03:51:13.135Z,12.68
2022-10-05T03:52:07.753Z,12.67
2022-10-05T03:52:41.693Z,12.71
2022-10-05T03:53:22.681Z,12.71
2022-10-05T03:53:58.563Z,12.68
2022-10-05T03:54:32.591Z,12.69
2022-10-05T03:55:16.786Z,12.72
2022-10-05T03:55:55.775Z,12.72
2022-10-05T03:56:37.389Z,12.67
2022-10-05T03:57:13.868Z,12.67
2022-10-05T03:57:45.749Z,12.73
2022-10-05T03:58:27.668Z,12.71
2022-10-05T03:58:59.934Z,12.69
2022-10-05T03:59:50.261Z,12.69
2022-10-05T04:00:25.699Z,12.71
2022-10-05T04:01:03.968Z,12.75
2022-10-05T04:01:39.906Z,12.74
2022-10-05T04:02:40.745Z,12.74
2022-10-05T04:03:22.218Z,12.75
2022-10-05T04:03:58.339Z,12.76
2022-10-05T04:04:43.015Z,12.76
2022-10-05T04:05:40.823Z,12.75
2022-10-05T04:06:35.665Z,12.77
2022-10-05T04:07:09.806Z,12.81
2022-10-05T04:07:47.555Z,12.80
2022-10-05T04:08:23.171Z,12.80
2022-10-05T04:09:03.755Z,12.80
2022-10-05T04:09:42.387Z,12.81
2022-10-05T04:10:37.509Z,12.80
2022-10-05T04:11:10.329Z,12.80
2022-10-05T04:11:51.077Z,12.78
2022-10-05T04:12:27.357Z,12.82
2022-10-05T04:13:01.572Z,12.82
2022-10-05T04:13:32.977Z,12.81
2022-10-05T04:14:14.619Z,12.84
2022-10-05T04:14:47.042Z,12.83
2022-10-05T04:15:27.969Z,12.87
2022-10-05T04:16:00.999Z,12.85
2022-10-05T04:16:34.952Z,12.87
2022-10-05T04:17:10.170Z,12.86
2022-10-05T04:17:46.037Z,12.85
2022-10-05T04:18:17.948Z,12.84
2022-10-05T04:19:01.572Z,12.82
2022-10-05T04:19:38.648Z,12.86
2022-10-05T04:20:27.677Z,12.88
2022-10-05T04:21:01.598Z,12.90
2022-10-05T04:21:53.536Z,12.84
2022-10-05T04:22:30.129Z,12.86
2022-10-05T04:23:04.777Z,12.86
2022-10-05T04:23:42.952Z,12.86
2022-10-05T04:24:43.426Z,12.89
2022-10-05T04:25:16.749Z,12.86
2022-10-05T04:25:54.902Z,12.86
2022-10-05T04:26:37.850Z,12.82
2022-10-05T04:27:15.506Z,12.86
2022-10-05T04:27:47.848Z,12.85
2022-10-05T04:28:22.789Z,12.90
2022-10-05T04:28:56.500Z,12.90
2022-10-05T04:29:31.153Z,12.88
2022-10-05T04:30:02.569Z,12.88
2022-10-05T04:30:35.329Z,12.92
2022-10-05T04:31:06.799Z,12.93
2022-10-05T04:31:58.474Z,12.91
2022-10-05T04:32:35.250Z,12.93
2022-10-05T04:33:09.097Z,12.92
2022-10-05T04:33:40.762Z,12.90
2022-10-05T04:34:38.312Z,12.92
2022-10-05T04:35:18.608Z,12.93
2022-10-05T04:35:52.649Z,12.94
2022-10-05T04:36:26.856Z,12.93
2022-10-05T04:36:59.348Z,12.94
2022-10-05T04:37:35.996Z,12.93
2022-10-05T04:38:16.716Z,12.92
2022-10-05T04:39:07.118Z,12.94
2022-10-05T04:39:40.097Z,12.95
2022-10-05T04:40:17.848Z,12.96
2022-10-05T04:40:56.105Z,12.97
2022-10-05T04:41:33.445Z,13.04
2022-10-05T04:42:11.166Z,12.99
2022-10-05T04:43:05.573Z,13.02
2022-10-05T04:43:48.063Z,13.00
2022-10-05T04:44:22.671Z,13.03
2022-10-05T04:45:02.613Z,13.02
2022-10-05T04:45:38.914Z,13.04
2022-10-05T04:46:18.624Z,13.03
2022-10-05T04:47:01.748Z,13.03
2022-10-05T04:47:36.922Z,13.02
2022-10-05T04:48:16.022Z,13.04
2022-10-05T04:49:04.349Z,13.06
2022-10-05T04:49:54.000Z,13.06
2022-10-05T04:50:44.447Z,13.04
2022-10-05T04:51:25.077Z,13.03
2022-10-05T04:52:00.082Z,13.06
2022-10-05T04:52:35.940Z,13.07
2022-10-05T04:53:16.793Z,13.05
2022-10-05T04:53:58.417Z,13.06
2022-10-05T04:54:49.550Z,13.06
2022-10-05T04:55:35.818Z,13.08
2022-10-05T04:56:07.251Z,13.06
2022-10-05T04:56:40.107Z,13.06
2022-10-05T04:57:14.639Z,13.07
2022-10-05T04:57:49.477Z,13.08
2022-10-05T04:58:42.381Z,13.10
2022-10-05T04:59:33.486Z,13.08
2022-10-05T05:00:05.833Z,13.08
2022-10-05T05:00:57.605Z,13.08
2022-10-05T05:01:31.719Z,13.11
2022-10-05T05:02:23.183Z,13.10
2022-10-05T05:02:55.278Z,13.09
2022-10-05T05:03:33.899Z,13.10
2022-10-05T05:04:23.947Z,13.10
2022-10-05T05:05:05.583Z,13.12
2022-10-05T05:06:15.750Z,13.15
2022-10-05T05:07:07.087Z,13.13
2022-10-05T05:07:41.247Z,13.14
2022-10-05T05:08:28.583Z,13.13
2022-10-05T05:09:09.228Z,13.17
2022-10-05T05:09:48.280Z,13.16
2022-10-05T05:10:28.519Z,13.15
2022-10-05T05:11:06.050Z,13.16
2022-10-05T05:11:40.078Z,13.15
2022-10-05T05:12:18.309Z,13.13
2022-10-05T05:12:50.182Z,13.14
2022-10-05T05:13:40.310Z,13.15
2022-10-05T05:14:30.880Z,13.14
2022-10-05T05:15:06.726Z,13.13
2022-10-05T05:15:47.051Z,13.14
2022-10-05T05:16:37.892Z,13.15
2022-10-05T05:17:29.789Z,13.12
2022-10-05T05:18:10.043Z,13.15
2022-10-05T05:18:42.369Z,13.14
2022-10-05T05:19:49.205Z,13.12
2022-10-05T05:20:27.211Z,13.11
2022-10-05T05:21:17.163Z,13.12
2022-10-05T05:21:51.957Z,13.12
2022-10-05T05:22:23.707Z,13.10
2022-10-05T05:23:06.751Z,13.10
2022-10-05T05:23:55.213Z,13.07
2022-10-05T05:24:31.777Z,13.08
2022-10-05T05:25:21.726Z,13.08
2022-10-05T05:25:57.728Z,13.09
2022-10-05T05:26:48.480Z,13.11
2022-10-05T05:27:20.086Z,13.10
2022-10-05T05:27:55.193Z,13.08
2022-10-05T05:28:34.435Z,13.10
2022-10-05T05:29:14.686Z,13.14
2022-10-05T05:29:58.335Z,13.15
2022-10-05T05:30:41.754Z,13.19
2022-10-05T05:31:17.193Z,13.19
2022-10-05T05:32:00.230Z,13.16
2022-10-05T05:32:44.423Z,13.16
2022-10-05T05:33:34.310Z,13.20
2022-10-05T05:34:18.087Z,13.17
2022-10-05T05:34:52.854Z,13.18
2022-10-05T05:35:24.436Z,13.15
2022-10-05T05:36:01.873Z,13.14
2022-10-05T05:36:51.872Z,13.18
2022-10-05T05:37:41.866Z,13.16
2022-10-05T05:38:28.483Z,13.14
2022-10-05T05:39:18.918Z,13.14
2022-10-05T05:40:09.177Z,13.13
2022-10-05T05:40:47.541Z,13.15
2022-10-05T05:41:36.759Z,13.16
2022-10-05T05:42:30.577Z,13.18
2022-10-05T05:43:03.591Z,13.17
2022-10-05T05:43:41.826Z,13.19
2022-10-05T05:44:24.481Z,13.19
2022-10-05T05:44:58.015Z,13.19
2022-10-05T05:45:41.436Z,13.20
2022-10-05T05:46:15.226Z,13.28
2022-10-05T05:47:03.445Z,13.26
2022-10-05T05:47:38.828Z,13.23
2022-10-05T05:48:29.122Z,13.24
2022-10-05T05:49:01.029Z,13.26
2022-10-05T05:49:32.436Z,13.21
2022-10-05T05:50:12.961Z,13.20
2022-10-05T05:50:58.521Z,13.19
2022-10-05T05:51:35.003Z,13.20
2022-10-05T05:52:10.467Z,13.19
2022-10-05T05:52:46.354Z,13.23
2022-10-05T05:53:21.998Z,13.25
2022-10-05T05:54:05.333Z,13.23
2022-10-05T05:54:41.165Z,13.28
2022-10-05T05:55:30.540Z,13.26
2022-10-05T05:56:09.582Z,13.25
2022-10-05T05:56:45.346Z,13.24
2022-10-05T05:57:19.598Z,13.22
2022-10-05T05:57:53.259Z,13.22
2022-10-05T05:58:31.084Z,13.24
2022-10-05T05:59:16.329Z,13.22
2022-10-05T06:00:07.698Z,13.23
2022-10-05T06:00:49.366Z,13.24
2022-10-05T06:01:33.657Z,13.23
2022-10-05T06:02:09.881Z,13.23
2022-10-05T06:02:46.498Z,13.25
2022-10-05T06:03:26.294Z,13.25
2022-10-05T06:03:58.427Z,13.23
2022-10-05T06:04:37.810Z,13.25
2022-10-05T06:05:18.554Z,13.25
2022-10-05T06:05:52.373Z,13.25
2022-10-05T06:06:27.336Z,13.29
2022-10-05T06:07:00.126Z,13.23
2022-10-05T06:07:31.911Z,13.23
2022-10-05T06:08:16.857Z,13.22
2022-10-05T06:08:50.879Z,13.23
2022-10-05T06:09:50.434Z,13.23
2022-10-05T06:10:33.901Z,13.24
2022-10-05T06:11:11.879Z,13.23
2022-10-05T06:11:45.536Z,13.24
2022-10-05T06:12:21.495Z,13.26
2022-10-05T06:12:55.646Z,13.25
2022-10-05T06:13:33.963Z,13.23
2022-10-05T06:14:06.399Z,13.22
2022-10-05T06:14:38.106Z,13.24
2022-10-05T06:15:15.811Z,13.22
2022-10-05T06:15:49.489Z,13.24
2022-10-05T06:16:22.214Z,13.24
2022-10-05T06:16:58.910Z,13.19
2022-10-05T06:17:35.261Z,13.24
2022-10-05T06:18:11.025Z,13.19
2022-10-05T06:18:43.712Z,13.20
2022-10-05T06:19:18.819Z,13.21
2022-10-05T06:19:51.906Z,13.20
2022-10-05T06:20:25.842Z,13.20
2022-10-05T06:21:01.456Z,13.23
2022-10-05T06:21:37.529Z,13.23
2022-10-05T06:22:19.827Z,13.21
2022-10-05T06:22:51.622Z,13.21
2022-10-05T06:23:26.438Z,13.15
2022-10-05T06:24:17.384Z,13.16
2022-10-05T06:24:59.400Z,13.19
2022-10-05T06:25:49.604Z,13.17
2022-10-05T06:26:45.212Z,13.20
2022-10-05T06:27:19.530Z,13.21
2022-10-05T06:28:02.407Z,13.20
2022-10-05T06:28:34.948Z,13.18
2022-10-05T06:29:08.805Z,13.20
2022-10-05T06:30:06.540Z,13.21
2022-10-05T06:30:46.110Z,13.20
2022-10-05T06:31:32.611Z,13.22
2022-10-05T06:32:07.036Z,13.26
2022-10-05T06:32:57.557Z,13.24
2022-10-05T06:33:38.092Z,13.31
2022-10-05T06:34:14.751Z,13.27
2022-10-05T06:35:05.275Z,13.26
2022-10-05T06:35:40.378Z,13.28
2022-10-05T06:36:15.295Z,13.25
2022-10-05T06:36:47.027Z,13.24
2022-10-05T06:37:41.997Z,13.25
2022-10-05T06:38:42.940Z,13.26
2022-10-05T06:39:14.421Z,13.22
2022-10-05T06:40:00.729Z,13.24
2022-10-05T06:40:55.430Z,13.23
2022-10-05T06:41:35.627Z,13.24
2022-10-05T06:42:08.070Z,13.25
2022-10-05T06:43:29.801Z,13.27
2022-10-05T06:44:47.042Z,13.32
2022-10-05T06:45:40.587Z,13.30
2022-10-05T06:46:36.345Z,13.29
2022-10-05T06:47:28.349Z,13.32
2022-10-05T06:48:24.210Z,13.31
2022-10-05T06:49:23.569Z,13.33
2022-10-05T06:50:22.690Z,13.32
2022-10-05T06:51:34.894Z,13.34
2022-10-05T06:52:15.991Z,13.33
2022-10-05T06:52:53.681Z,13.27
2022-10-05T06:53:35.484Z,13.28
2022-10-05T06:54:36.554Z,13.33
2022-10-05T06:55:20.138Z,13.34
2022-10-05T06:55:54.179Z,13.33
2022-10-05T06:56:27.332Z,13.34
2022-10-05T06:57:18.431Z,13.34
2022-10-05T06:58:07.834Z,13.45
2022-10-05T06:58:39.341Z,13.39
2022-10-05T06:59:40.846Z,13.37
2022-10-05T07:00:12.311Z,13.37
2022-10-05T07:00:54.074Z,13.40
2022-10-05T07:01:45.411Z,13.35
2022-10-05T07:02:35.419Z,13.38
2022-10-05T07:03:10.014Z,13.42
2022-10-05T07:04:00.671Z,13.41
2022-10-05T07:04:48.187Z,13.39
2022-10-05T07:05:59.200Z,13.43
2022-10-05T07:06:33.356Z,13.44
2022-10-05T07:07:14.699Z,13.43
2022-10-05T07:07:56.246Z,13.41
2022-10-05T07:08:46.384Z,13.38
2022-10-05T07:09:29.464Z,13.38
2022-10-05T07:10:20.387Z,13.41
2022-10-05T07:10:55.150Z,13.40
2022-10-05T07:11:33.395Z,13.45
2022-10-05T07:12:07.798Z,13.41
2022-10-05T07:12:50.049Z,13.44
2022-10-05T07:13:40.033Z,13.43
2022-10-05T07:14:14.824Z,13.42
2022-10-05T07:14:49.563Z,13.42
2022-10-05T07:15:39.511Z,13.43
2022-10-05T07:16:57.729Z,13.69
2022-10-05T07:17:56.824Z,13.64
2022-10-05T07:18:38.411Z,13.59
2022-10-05T07:19:28.841Z,13.55
2022-10-05T07:20:29.604Z,13.58
2022-10-05T07:21:10.316Z,13.57
2022-10-05T07:21:43.933Z,13.62
2022-10-05T07:22:22.051Z,13.60
2022-10-05T07:23:33.016Z,13.60
2022-10-05T07:24:29.366Z,13.60
2022-10-05T07:25:08.434Z,13.57
2022-10-05T07:25:48.288Z,13.56
2022-10-05T07:26:31.257Z,13.59
2022-10-05T07:27:12.941Z,13.62
2022-10-05T07:28:09.725Z,13.61
2022-10-05T07:28:45.185Z,13.61
2022-10-05T07:29:24.423Z,13.61
2022-10-05T07:30:10.185Z,13.62
2022-10-05T07:31:00.838Z,13.67
2022-10-05T07:31:38.025Z,13.69
2022-10-05T07:32:47.408Z,13.69
2022-10-05T07:33:25.707Z,13.70
2022-10-05T07:34:15.512Z,13.70
2022-10-05T07:34:58.897Z,13.74
2022-10-05T07:36:17.649Z,13.77
2022-10-05T07:37:14.187Z,13.82
2022-10-05T07:37:54.711Z,13.82
2022-10-05T07:38:36.299Z,13.82
2022-10-05T07:39:18.798Z,13.92
2022-10-05T07:40:05.013Z,13.92
2022-10-05T07:40:49.917Z,13.92
2022-10-05T07:41:48.237Z,13.90
2022-10-05T07:42:48.807Z,13.93
2022-10-05T07:44:02.110Z,13.90
2022-10-05T07:44:52.520Z,13.90
2022-10-05T07:45:29.458Z,13.93
2022-10-05T07:46:04.775Z,13.96
2022-10-05T07:46:51.969Z,13.99
2022-10-05T07:47:36.965Z,14.00
2022-10-05T07:48:22.837Z,14.06
2022-10-05T07:49:03.263Z,14.07
2022-10-05T07:49:44.449Z,14.09
2022-10-05T07:50:30.205Z,14.05
2022-10-05T07:51:18.371Z,14.03
2022-10-05T07:51:58.825Z,14.03
2022-10-05T07:52:36.639Z,14.06
2022-10-05T07:53:21.106Z,14.05
2022-10-05T07:54:21.825Z,14.08
2022-10-05T07:55:02.634Z,14.12
2022-10-05T07:55:37.893Z,14.08
2022-10-05T07:56:20.481Z,14.14
2022-10-05T07:57:20.300Z,14.14
2022-10-05T07:58:01.948Z,14.13
2022-10-05T07:58:42.634Z,14.14
2022-10-05T07:59:54.311Z,14.28
2022-10-05T08:00:41.903Z,14.27
2022-10-05T08:01:23.394Z,14.26
2022-10-05T08:02:17.684Z,14.24
2022-10-05T08:02:58.544Z,14.25
2022-10-05T08:03:49.723Z,14.28
2022-10-05T08:04:39.380Z,14.33
2022-10-05T08:05:46.964Z,14.39
2022-10-05T08:06:39.382Z,14.45
2022-10-05T08:07:17.620Z,14.45
2022-10-05T08:07:53.508Z,14.46
2022-10-05T08:08:39.948Z,14.50
2022-10-05T08:09:26.340Z,14.50
2022-10-05T08:10:14.452Z,14.53
2022-10-05T08:11:02.297Z,14.49
2022-10-05T08:11:52.144Z,14.50
2022-10-05T08:12:54.226Z,14.57
2022-10-05T08:13:34.469Z,14.56
2022-10-05T08:14:18.852Z,14.56
2022-10-05T08:14:58.938Z,14.59
2022-10-05T08:15:39.610Z,14.64
2022-10-05T08:16:15.544Z,14.62
2022-10-05T08:16:48.739Z,14.67
2022-10-05T08:17:32.140Z,14.66
2022-10-05T08:18:38.601Z,14.63
2022-10-05T08:19:34.183Z,14.59
2022-10-05T08:20:24.109Z,14.64
2022-10-05T08:20:58.031Z,14.68
2022-10-05T08:21:41.626Z,14.64
2022-10-05T08:22:29.721Z,14.56
2022-10-05T08:23:48.232Z,14.64
2022-10-05T08:24:41.382Z,14.57
2022-10-05T08:25:30.291Z,14.64
2022-10-05T08:26:22.580Z,14.67
2022-10-05T08:26:54.221Z,14.66
2022-10-05T08:27:32.526Z,14.70
2022-10-05T08:28:16.144Z,14.67
2022-10-05T08:29:13.786Z,14.65
2022-10-05T08:30:03.749Z,14.70
2022-10-05T08:30:47.714Z,14.70
2022-10-05T08:31:27.107Z,14.69
2022-10-05T08:32:03.308Z,14.71
2022-10-05T08:32:50.382Z,14.77
2022-10-05T08:33:22.763Z,14.79
2022-10-05T08:34:07.245Z,14.73
2022-10-05T08:34:59.321Z,14.78
2022-10-05T08:35:40.726Z,14.80
2022-10-05T08:36:14.703Z,14.77
2022-10-05T08:36:58.666Z,14.79
2022-10-05T08:37:33.686Z,14.81
2022-10-05T08:38:16.924Z,14.85
2022-10-05T08:38:54.708Z,14.80
2022-10-05T08:39:35.625Z,14.87
2022-10-05T08:40:19.037Z,14.86
2022-10-05T08:40:59.610Z,14.87
2022-10-05T08:41:57.612Z,14.88